首页
METAR-TAF:

METAR-TAF

机场 :

成都双流国际机场

成都, 中华人民共和国

纬度: 30-40N, 经度: 104-01E, 海拔: 508米

当前天气观测

该预报发布于29分钟前的15:00 UTC
风速2节,风向多变
温度 29°C
湿度 66%
气压 1011 hPa
能见度10公里或以上
散云层高于5000英尺

METAR: ZUUU 161500Z VRB01MPS 9999 SCT050 29/22 Q1011 NOSIG

时间: 23:29 (15:29 UTC)

预报

该预报发布于7小时和4分钟前的08:25 UTC
预报有效从16日的 12点(UTC)到 17日的 12点(UTC)
风速8节,风向北转东北
能見度: 5000
少量云层高于3000英尺, 积雨云.
散云层高于5000英尺
轻雾
短暂存在
从 16日的 14点(UTC)到 16日的 18点(UTC)
雷暴, 小雨

TAF: ZUUU 160825Z 1612/1712 02004MPS 5000 BR FEW030CB SCT050 TX34/1707Z TN25/1621Z TEMPO 1614/1618 -TSRA

超过4000个机场的气象观测和天气预报(METAR&TAF报告)。

可查询的气象台以黄色和红色小点在地图上表示。

将鼠标移到小点上方,可查看气象台名称。

然后点击查看天气观测和预报。

如需切换地图:点击带黑十字的绿色按钮放大地图;点击带横线的绿色按钮缩小地图;或者点击绿色箭头查看邻近地区的地图。


METAR-TAF: